createdAt,value
2022-08-17T00:00:00.048Z,21.78
2022-08-17T00:03:28.761Z,21.67
2022-08-17T00:06:40.046Z,21.87
2022-08-17T00:09:46.200Z,21.93
2022-08-17T00:12:55.726Z,21.94
2022-08-17T00:16:00.320Z,21.85
2022-08-17T00:19:08.783Z,21.90
2022-08-17T00:22:33.172Z,21.69
2022-08-17T00:25:27.050Z,21.68
2022-08-17T00:28:33.357Z,21.68
2022-08-17T00:31:39.319Z,21.64
2022-08-17T00:34:45.748Z,21.62
2022-08-17T00:37:51.831Z,21.63
2022-08-17T00:41:09.725Z,21.63
2022-08-17T00:44:19.565Z,21.62
2022-08-17T00:47:25.958Z,21.66
2022-08-17T00:50:33.100Z,21.65
2022-08-17T00:53:41.791Z,21.55
2022-08-17T00:56:54.220Z,21.51
2022-08-17T01:00:03.786Z,21.42
2022-08-17T01:03:38.744Z,21.48
2022-08-17T01:06:45.020Z,21.42
2022-08-17T01:09:51.091Z,21.44
2022-08-17T01:12:57.117Z,21.36
2022-08-17T01:16:09.144Z,21.31
2022-08-17T01:19:17.244Z,21.22
2022-08-17T01:22:33.360Z,21.22
2022-08-17T01:25:39.449Z,21.10
2022-08-17T01:28:53.410Z,21.07
2022-08-17T01:32:03.631Z,21.04
2022-08-17T01:35:08.797Z,21.01
2022-08-17T01:38:14.439Z,20.97
2022-08-17T01:41:24.250Z,21.00
2022-08-17T01:44:30.067Z,20.92
2022-08-17T01:47:36.069Z,20.88
2022-08-17T01:50:46.181Z,20.89
2022-08-17T01:53:55.045Z,20.87
2022-08-17T01:57:04.343Z,20.77
2022-08-17T02:00:09.664Z,20.75
2022-08-17T02:03:15.397Z,20.73
2022-08-17T02:06:27.874Z,20.73
2022-08-17T02:09:29.829Z,20.68
2022-08-17T02:12:38.790Z,20.67
2022-08-17T02:15:44.293Z,20.61
2022-08-17T02:18:49.654Z,20.57
2022-08-17T02:21:56.936Z,20.54
2022-08-17T02:25:03.261Z,20.52
2022-08-17T02:28:08.613Z,20.50
2022-08-17T02:31:20.954Z,20.46
2022-08-17T02:34:25.998Z,20.47
2022-08-17T02:37:31.495Z,20.44
2022-08-17T02:40:37.216Z,20.46
2022-08-17T02:43:42.326Z,20.46
2022-08-17T02:46:47.831Z,20.40
2022-08-17T02:49:56.132Z,20.40
2022-08-17T02:53:02.952Z,20.40
2022-08-17T02:56:10.255Z,20.44
2022-08-17T02:59:15.511Z,20.45
2022-08-17T03:02:25.204Z,20.47
2022-08-17T03:05:32.944Z,20.53
2022-08-17T03:08:38.272Z,20.62
2022-08-17T03:11:43.481Z,20.71
2022-08-17T03:14:50.520Z,20.76
2022-08-17T03:17:56.338Z,20.81
2022-08-17T03:21:01.789Z,20.83
2022-08-17T03:24:09.056Z,20.87
2022-08-17T03:27:14.888Z,20.92
2022-08-17T03:30:23.731Z,20.94
2022-08-17T03:33:29.861Z,20.99
2022-08-17T03:36:36.258Z,21.03
2022-08-17T03:39:42.800Z,21.15
2022-08-17T03:42:48.991Z,21.35
2022-08-17T03:46:34.435Z,21.57
2022-08-17T03:49:38.891Z,21.76
2022-08-17T03:53:02.272Z,21.83
2022-08-17T03:56:26.178Z,21.93
2022-08-17T03:59:34.898Z,22.07
2022-08-17T04:02:46.114Z,22.27
2022-08-17T04:05:50.554Z,22.42
2022-08-17T04:08:56.338Z,22.50
2022-08-17T04:12:04.814Z,22.54
2022-08-17T04:15:10.713Z,22.65
2022-08-17T04:18:15.774Z,22.85
2022-08-17T04:21:22.632Z,23.12
2022-08-17T04:24:28.134Z,23.21
2022-08-17T04:27:33.770Z,23.31
2022-08-17T04:30:39.232Z,23.55
2022-08-17T04:33:44.524Z,23.77
2022-08-17T04:36:51.182Z,23.93
2022-08-17T04:40:04.145Z,24.12
2022-08-17T04:43:23.205Z,24.30
2022-08-17T04:46:33.558Z,24.48
2022-08-17T04:49:39.174Z,24.63
2022-08-17T04:52:45.614Z,24.84
2022-08-17T04:55:51.410Z,24.96
2022-08-17T04:59:03.135Z,24.96
2022-08-17T05:02:08.516Z,25.22
2022-08-17T05:05:14.015Z,25.30
2022-08-17T05:08:20.936Z,25.42
2022-08-17T05:11:28.530Z,25.55
2022-08-17T05:14:34.085Z,25.75
2022-08-17T05:17:39.939Z,25.93
2022-08-17T05:20:45.346Z,26.06
2022-08-17T05:23:54.835Z,26.15
2022-08-17T05:27:02.564Z,26.31
2022-08-17T05:30:05.182Z,26.45
2022-08-17T05:33:15.679Z,26.52
2022-08-17T05:36:38.025Z,26.77
2022-08-17T05:39:29.811Z,26.94
2022-08-17T05:42:35.542Z,27.08
2022-08-17T05:45:55.784Z,27.23
2022-08-17T05:48:56.488Z,27.29
2022-08-17T05:52:25.583Z,27.21
2022-08-17T05:55:54.346Z,27.33
2022-08-17T05:59:39.799Z,27.54
2022-08-17T06:03:03.748Z,27.73
2022-08-17T06:06:42.073Z,27.80
2022-08-17T06:10:06.869Z,27.83
2022-08-17T06:13:38.617Z,27.75
2022-08-17T06:16:47.875Z,27.53
2022-08-17T06:20:13.620Z,27.65
2022-08-17T06:23:22.684Z,27.68
2022-08-17T06:26:39.696Z,27.66
2022-08-17T06:30:13.513Z,27.73
2022-08-17T06:33:24.678Z,27.73
2022-08-17T06:36:54.669Z,27.80
2022-08-17T06:40:12.151Z,28.05
2022-08-17T06:43:49.927Z,28.26
2022-08-17T06:47:05.392Z,28.35
2022-08-17T06:50:38.081Z,28.43
2022-08-17T06:53:53.292Z,28.53
2022-08-17T06:57:22.672Z,28.60
2022-08-17T07:00:31.812Z,28.67
2022-08-17T07:04:06.694Z,28.80
2022-08-17T07:07:16.078Z,28.70
2022-08-17T07:10:21.869Z,28.84
2022-08-17T07:13:54.887Z,28.91
2022-08-17T07:17:04.814Z,28.93
2022-08-17T07:20:15.251Z,28.93
2022-08-17T07:23:36.561Z,29.03
2022-08-17T07:26:42.632Z,29.04
2022-08-17T07:29:54.167Z,29.11
2022-08-17T07:33:07.519Z,29.04
2022-08-17T07:36:16.056Z,29.04
2022-08-17T07:39:21.327Z,29.08
2022-08-17T07:42:26.873Z,29.36
2022-08-17T07:45:52.665Z,29.36
2022-08-17T07:49:02.138Z,29.44
2022-08-17T07:52:47.893Z,29.58
2022-08-17T07:55:42.450Z,29.63
2022-08-17T07:58:49.365Z,29.73
2022-08-17T08:01:57.378Z,29.90
2022-08-17T08:05:48.837Z,29.93
2022-08-17T08:08:45.597Z,30.04
2022-08-17T08:11:51.810Z,30.23
2022-08-17T08:14:59.896Z,30.32
2022-08-17T08:18:13.275Z,30.38
2022-08-17T08:21:53.733Z,30.32
2022-08-17T08:25:28.820Z,30.37
2022-08-17T08:28:55.038Z,30.47
2022-08-17T08:32:15.614Z,30.50
2022-08-17T08:35:45.087Z,30.55
2022-08-17T08:39:10.880Z,30.59
2022-08-17T08:42:30.117Z,30.55
2022-08-17T08:45:49.863Z,30.29
2022-08-17T08:49:45.191Z,30.20
2022-08-17T08:52:39.743Z,30.20
2022-08-17T08:56:09.094Z,30.26
2022-08-17T08:59:22.153Z,30.27
2022-08-17T09:03:12.408Z,30.34
2022-08-17T09:06:38.645Z,30.35
2022-08-17T09:09:49.226Z,30.45
2022-08-17T09:13:19.700Z,30.45
2022-08-17T09:16:35.819Z,30.42
2022-08-17T09:20:28.013Z,30.33
2022-08-17T09:23:37.220Z,30.44
2022-08-17T09:27:08.425Z,30.53
2022-08-17T09:30:19.358Z,30.46
2022-08-17T09:33:28.884Z,30.46
2022-08-17T09:36:39.238Z,30.52
2022-08-17T09:39:55.943Z,30.45
2022-08-17T09:43:41.275Z,30.23
2022-08-17T09:46:53.105Z,30.23
2022-08-17T09:50:07.370Z,30.16
2022-08-17T09:53:14.052Z,30.18
2022-08-17T09:57:18.184Z,30.15
2022-08-17T10:00:35.952Z,30.17
2022-08-17T10:04:02.587Z,30.13
2022-08-17T10:07:13.262Z,29.92
2022-08-17T10:10:32.476Z,30.04
2022-08-17T10:14:35.905Z,29.96
2022-08-17T10:17:25.831Z,29.78
2022-08-17T10:20:45.521Z,29.55
2022-08-17T10:24:13.333Z,29.51
2022-08-17T10:27:22.648Z,29.46
2022-08-17T10:30:27.540Z,29.50
2022-08-17T10:33:41.947Z,29.41
2022-08-17T10:37:03.219Z,29.26
2022-08-17T10:40:39.703Z,29.42
2022-08-17T10:44:40.272Z,29.38
2022-08-17T10:47:52.843Z,29.32
2022-08-17T10:51:14.245Z,29.35
2022-08-17T10:54:24.747Z,29.13
2022-08-17T10:57:56.355Z,28.88
2022-08-17T11:01:13.329Z,28.77
2022-08-17T11:05:03.449Z,28.55
2022-08-17T11:08:55.249Z,28.29
2022-08-17T11:12:24.647Z,28.04
2022-08-17T11:15:48.150Z,27.97
2022-08-17T11:19:01.414Z,28.01
2022-08-17T11:22:34.328Z,28.08
2022-08-17T11:25:57.275Z,28.32
2022-08-17T11:29:05.726Z,28.41
2022-08-17T11:32:21.959Z,28.36
2022-08-17T11:35:45.171Z,28.35
2022-08-17T11:38:57.736Z,28.36
2022-08-17T11:42:22.654Z,28.31
2022-08-17T11:46:08.924Z,28.41
2022-08-17T11:49:42.638Z,28.70
2022-08-17T11:52:55.379Z,28.90
2022-08-17T11:56:14.697Z,29.13
2022-08-17T11:59:48.818Z,29.33
2022-08-17T12:02:58.146Z,29.40
2022-08-17T12:06:04.271Z,29.57
2022-08-17T12:09:16.693Z,29.71
2022-08-17T12:12:36.737Z,29.72
2022-08-17T12:15:53.780Z,29.72
2022-08-17T12:19:13.294Z,29.76
2022-08-17T12:22:40.530Z,29.88
2022-08-17T12:26:04.004Z,29.88
2022-08-17T12:29:35.613Z,29.99
2022-08-17T12:32:34.112Z,30.04
2022-08-17T12:35:55.047Z,29.91
2022-08-17T12:39:21.233Z,29.77
2022-08-17T12:42:30.402Z,29.87
2022-08-17T12:45:47.646Z,29.81
2022-08-17T12:48:58.799Z,29.83
2022-08-17T12:52:01.606Z,29.83
2022-08-17T12:55:33.936Z,29.79
2022-08-17T12:58:47.746Z,29.82
2022-08-17T13:01:56.318Z,29.77
2022-08-17T13:05:03.421Z,29.72
2022-08-17T13:08:12.300Z,29.67
2022-08-17T13:11:21.330Z,29.73
2022-08-17T13:14:27.975Z,29.72
2022-08-17T13:17:42.795Z,29.70
2022-08-17T13:20:48.534Z,29.69
2022-08-17T13:23:54.539Z,29.63
2022-08-17T13:27:08.005Z,29.63
2022-08-17T13:30:17.154Z,29.56
2022-08-17T13:33:45.202Z,29.48
2022-08-17T13:36:41.681Z,29.54
2022-08-17T13:39:49.085Z,29.58
2022-08-17T13:43:06.329Z,29.66
2022-08-17T13:46:11.062Z,29.71
2022-08-17T13:49:19.269Z,29.71
2022-08-17T13:52:50.062Z,29.64
2022-08-17T13:55:53.832Z,29.61
2022-08-17T13:59:17.479Z,29.60
2022-08-17T14:02:25.999Z,29.78
2022-08-17T14:05:31.690Z,29.66
2022-08-17T14:08:38.551Z,29.66
2022-08-17T14:11:44.986Z,29.46
2022-08-17T14:14:51.467Z,29.46
2022-08-17T14:17:57.764Z,29.34
2022-08-17T14:21:04.163Z,29.31
2022-08-17T14:24:10.182Z,29.33
2022-08-17T14:27:17.431Z,29.46
2022-08-17T14:30:24.974Z,29.40
2022-08-17T14:33:31.817Z,29.45
2022-08-17T14:36:38.365Z,29.49
2022-08-17T14:39:45.415Z,29.48
2022-08-17T14:42:52.621Z,29.53
2022-08-17T14:45:58.620Z,29.59
2022-08-17T14:49:04.375Z,29.57
2022-08-17T14:52:09.987Z,29.57
2022-08-17T14:55:15.453Z,29.47
2022-08-17T14:58:21.285Z,29.47
2022-08-17T15:01:27.460Z,29.62
2022-08-17T15:04:33.356Z,29.51
2022-08-17T15:07:38.523Z,29.52
2022-08-17T15:10:44.405Z,29.52
2022-08-17T15:13:53.013Z,29.54
2022-08-17T15:16:57.531Z,29.54
2022-08-17T15:20:04.392Z,29.51
2022-08-17T15:23:10.352Z,29.51
2022-08-17T15:26:16.051Z,29.36
2022-08-17T15:29:21.456Z,29.27
2022-08-17T15:32:45.855Z,29.13
2022-08-17T15:35:49.592Z,29.13
2022-08-17T15:38:56.044Z,29.06
2022-08-17T15:42:02.265Z,28.98
2022-08-17T15:45:07.786Z,28.86
2022-08-17T15:48:14.189Z,28.73
2022-08-17T15:51:19.962Z,28.66
2022-08-17T15:54:31.783Z,28.62
2022-08-17T15:57:34.502Z,28.47
2022-08-17T16:00:53.081Z,28.37
2022-08-17T16:04:04.053Z,28.30
2022-08-17T16:06:57.134Z,28.29
2022-08-17T16:10:07.230Z,28.13
2022-08-17T16:13:17.517Z,28.03
2022-08-17T16:16:20.684Z,28.00
2022-08-17T16:19:26.329Z,27.94
2022-08-17T16:22:32.712Z,27.84
2022-08-17T16:25:53.483Z,27.66
2022-08-17T16:28:49.900Z,27.52
2022-08-17T16:31:56.140Z,27.42
2022-08-17T16:35:02.645Z,27.27
2022-08-17T16:38:09.389Z,27.24
2022-08-17T16:41:14.750Z,27.10
2022-08-17T16:44:21.035Z,27.22
2022-08-17T16:47:27.478Z,27.24
2022-08-17T16:50:35.444Z,27.13
2022-08-17T16:53:40.716Z,27.05
2022-08-17T16:56:46.053Z,27.08
2022-08-17T16:59:51.686Z,27.04
2022-08-17T17:03:03.478Z,26.84
2022-08-17T17:06:47.089Z,26.90
2022-08-17T17:09:55.185Z,26.50
2022-08-17T17:13:03.685Z,26.29
2022-08-17T17:16:34.466Z,26.20
2022-08-17T17:19:56.714Z,26.15
2022-08-17T17:23:06.216Z,26.08
2022-08-17T17:26:42.508Z,26.19
2022-08-17T17:30:10.854Z,26.16
2022-08-17T17:33:24.186Z,25.97
2022-08-17T17:36:44.218Z,25.86
2022-08-17T17:40:00.084Z,25.74
2022-08-17T17:43:37.255Z,25.81
2022-08-17T17:46:28.467Z,25.78
2022-08-17T17:49:33.195Z,25.57
2022-08-17T17:52:54.340Z,25.59
2022-08-17T17:56:39.838Z,25.56
2022-08-17T17:59:51.726Z,25.45
2022-08-17T18:03:25.944Z,25.36
2022-08-17T18:07:04.626Z,25.34
2022-08-17T18:10:31.912Z,25.31
2022-08-17T18:14:02.981Z,25.38
2022-08-17T18:17:13.267Z,25.02
2022-08-17T18:20:20.442Z,24.88
2022-08-17T18:23:28.824Z,24.87
2022-08-17T18:26:51.078Z,24.85
2022-08-17T18:29:59.471Z,24.84
2022-08-17T18:33:05.328Z,24.77
2022-08-17T18:36:11.043Z,24.59
2022-08-17T18:39:37.537Z,24.43
2022-08-17T18:42:45.255Z,24.39
2022-08-17T18:46:00.750Z,24.27
2022-08-17T18:49:16.874Z,24.34
2022-08-17T18:52:31.542Z,24.38
2022-08-17T18:55:39.662Z,24.39
2022-08-17T18:58:46.021Z,24.16
2022-08-17T19:02:32.532Z,24.09
2022-08-17T19:05:49.149Z,24.10
2022-08-17T19:08:56.668Z,24.06
2022-08-17T19:12:03.235Z,24.14
2022-08-17T19:15:09.906Z,24.19
2022-08-17T19:18:42.832Z,24.13
2022-08-17T19:22:00.292Z,24.13
2022-08-17T19:25:09.365Z,24.02
2022-08-17T19:28:22.781Z,23.95
2022-08-17T19:31:40.666Z,23.89
2022-08-17T19:34:51.029Z,23.91
2022-08-17T19:38:29.314Z,23.87
2022-08-17T19:41:51.735Z,23.81
2022-08-17T19:45:11.497Z,23.73
2022-08-17T19:48:20.093Z,23.53
2022-08-17T19:51:30.220Z,23.41
2022-08-17T19:54:40.708Z,23.35
2022-08-17T19:58:12.269Z,23.34
2022-08-17T20:01:19.279Z,23.59
2022-08-17T20:04:49.662Z,23.53
2022-08-17T20:08:18.234Z,23.67
2022-08-17T20:11:41.587Z,23.38
2022-08-17T20:15:01.222Z,23.44
2022-08-17T20:18:06.712Z,23.43
2022-08-17T20:21:21.793Z,23.47
2022-08-17T20:24:48.353Z,23.48
2022-08-17T20:28:13.862Z,23.43
2022-08-17T20:31:57.792Z,23.43
2022-08-17T20:35:03.901Z,23.23
2022-08-17T20:38:20.369Z,23.23
2022-08-17T20:41:31.919Z,23.13
2022-08-17T20:44:50.332Z,23.15
2022-08-17T20:48:26.043Z,22.63
2022-08-17T20:51:12.754Z,22.66
2022-08-17T20:54:34.092Z,22.89
2022-08-17T20:57:54.160Z,22.76
2022-08-17T21:01:30.307Z,22.82
2022-08-17T21:05:09.663Z,22.84
2022-08-17T21:08:30.375Z,22.67
2022-08-17T21:12:02.522Z,22.79
2022-08-17T21:15:10.534Z,22.66
2022-08-17T21:18:27.320Z,22.69
2022-08-17T21:21:46.579Z,22.69
2022-08-17T21:24:58.794Z,22.61
2022-08-17T21:28:33.715Z,22.59
2022-08-17T21:31:56.491Z,22.47
2022-08-17T21:35:38.819Z,22.44
2022-08-17T21:38:53.391Z,22.47
2022-08-17T21:42:10.009Z,22.50
2022-08-17T21:45:31.747Z,22.48
2022-08-17T21:48:38.398Z,22.54
2022-08-17T21:51:44.085Z,22.58
2022-08-17T21:54:52.831Z,22.75
2022-08-17T21:58:14.125Z,22.48
2022-08-17T22:01:40.958Z,22.40
2022-08-17T22:04:52.729Z,22.34
2022-08-17T22:08:04.039Z,22.27
2022-08-17T22:11:17.166Z,22.23
2022-08-17T22:14:51.426Z,22.23
2022-08-17T22:17:53.578Z,22.17
2022-08-17T22:20:59.009Z,22.27
2022-08-17T22:24:20.345Z,22.25
2022-08-17T22:27:26.550Z,22.12
2022-08-17T22:30:36.052Z,22.06
2022-08-17T22:34:02.615Z,22.05
2022-08-17T22:37:36.122Z,22.08
2022-08-17T22:40:47.157Z,22.42
2022-08-17T22:43:52.428Z,22.42
2022-08-17T22:47:11.485Z,22.35
2022-08-17T22:50:17.528Z,22.13
2022-08-17T22:53:50.583Z,22.36
2022-08-17T22:57:29.551Z,22.06
2022-08-17T23:00:57.374Z,22.08
2022-08-17T23:04:19.094Z,22.02
2022-08-17T23:07:35.745Z,22.26
2022-08-17T23:10:44.276Z,22.07
2022-08-17T23:13:51.388Z,22.12
2022-08-17T23:17:00.648Z,22.05
2022-08-17T23:20:06.170Z,21.98
2022-08-17T23:23:12.784Z,21.97
2022-08-17T23:26:17.988Z,22.01
2022-08-17T23:29:23.967Z,22.08
2022-08-17T23:32:30.468Z,22.02
2022-08-17T23:35:39.032Z,21.91
2022-08-17T23:38:44.098Z,21.99
2022-08-17T23:41:54.687Z,21.98
2022-08-17T23:45:01.182Z,21.96
2022-08-17T23:48:07.398Z,21.94
2022-08-17T23:51:13.044Z,22.03
2022-08-17T23:54:34.335Z,22.06
2022-08-17T23:57:41.133Z,21.56
